createdAt,value
2019-02-17T00:01:45.596Z,265.30
2019-02-17T00:04:13.985Z,251.45
2019-02-17T00:06:42.410Z,274.80
2019-02-17T00:09:11.277Z,260.63
2019-02-17T00:11:39.709Z,268.00
2019-02-17T00:14:08.075Z,258.95
2019-02-17T00:16:36.551Z,263.20
2019-02-17T00:19:04.896Z,262.68
2019-02-17T00:21:33.297Z,260.50
2019-02-17T00:24:01.718Z,268.88
2019-02-17T00:26:30.635Z,266.38
2019-02-17T00:28:59.885Z,263.30
2019-02-17T00:31:28.356Z,265.92
2019-02-17T00:33:56.755Z,263.27
2019-02-17T00:36:25.143Z,270.10
2019-02-17T00:38:53.760Z,262.17
2019-02-17T00:41:22.162Z,262.63
2019-02-17T00:43:50.564Z,283.73
2019-02-17T00:46:18.966Z,260.13
2019-02-17T00:48:47.384Z,289.30
2019-02-17T00:51:15.771Z,271.05
2019-02-17T00:53:44.167Z,276.45
2019-02-17T00:56:12.553Z,279.77
2019-02-17T00:58:40.999Z,277.18
2019-02-17T01:01:09.411Z,269.45
2019-02-17T01:03:37.787Z,285.52
2019-02-17T01:06:06.301Z,281.30
2019-02-17T01:08:34.789Z,279.45
2019-02-17T01:11:03.200Z,270.82
2019-02-17T01:13:31.812Z,274.25
2019-02-17T01:16:00.248Z,275.68
2019-02-17T01:18:28.632Z,277.20
2019-02-17T01:20:57.047Z,289.10
2019-02-17T01:23:25.460Z,294.02
2019-02-17T01:25:53.936Z,277.10
2019-02-17T01:28:22.345Z,295.52
2019-02-17T01:30:50.767Z,293.60
2019-02-17T01:33:19.148Z,299.70
2019-02-17T01:35:47.532Z,298.10
2019-02-17T01:38:15.931Z,317.57
2019-02-17T01:40:44.308Z,307.57
2019-02-17T01:43:12.726Z,314.57
2019-02-17T01:45:41.119Z,302.77
2019-02-17T01:48:09.547Z,304.68
2019-02-17T01:50:37.927Z,301.62
2019-02-17T01:53:06.376Z,298.87
2019-02-17T01:55:34.752Z,301.42
2019-02-17T01:58:03.171Z,302.15
2019-02-17T02:00:31.563Z,318.85
2019-02-17T02:03:00.000Z,305.00
2019-02-17T02:05:28.377Z,291.93
2019-02-17T02:07:56.805Z,301.10
2019-02-17T02:10:25.259Z,312.05
2019-02-17T02:12:55.272Z,304.87
2019-02-17T02:15:23.655Z,303.10
2019-02-17T02:17:52.052Z,296.68
2019-02-17T02:20:20.471Z,298.00
2019-02-17T02:22:48.863Z,302.20
2019-02-17T02:25:17.251Z,280.62
2019-02-17T02:27:45.715Z,291.00
2019-02-17T02:30:14.300Z,288.78
2019-02-17T02:32:42.708Z,274.20
2019-02-17T02:35:11.109Z,280.90
2019-02-17T02:37:39.488Z,276.82
2019-02-17T02:40:08.392Z,271.40
2019-02-17T02:42:36.771Z,273.05
2019-02-17T02:45:08.016Z,283.87
2019-02-17T02:47:36.431Z,273.07
2019-02-17T02:50:07.850Z,282.73
2019-02-17T02:52:36.260Z,276.60
2019-02-17T02:55:04.932Z,288.23
2019-02-17T02:57:33.332Z,247.80
2019-02-17T03:00:01.766Z,258.38
2019-02-17T03:02:30.181Z,271.98
2019-02-17T03:04:58.580Z,235.55
2019-02-17T03:07:26.987Z,246.43
2019-02-17T03:09:55.391Z,263.80
2019-02-17T03:12:23.979Z,254.07
2019-02-17T03:14:52.366Z,248.22
2019-02-17T03:17:20.766Z,256.85
2019-02-17T03:19:49.194Z,255.75
2019-02-17T03:22:17.612Z,238.55
2019-02-17T03:24:45.997Z,250.70
2019-02-17T03:27:14.420Z,239.97
2019-02-17T03:29:42.804Z,246.65
2019-02-17T03:32:11.223Z,250.55
2019-02-17T03:34:39.608Z,259.87
2019-02-17T03:37:08.037Z,262.27
2019-02-17T03:39:36.426Z,262.00
2019-02-17T03:42:04.806Z,256.50
2019-02-17T03:44:33.227Z,257.77
2019-02-17T03:47:01.617Z,254.50
2019-02-17T03:49:30.008Z,246.20
2019-02-17T03:51:58.415Z,255.25
2019-02-17T03:54:26.816Z,258.20
2019-02-17T03:56:55.207Z,258.93
2019-02-17T03:59:23.623Z,253.75
2019-02-17T04:01:52.021Z,253.35
2019-02-17T04:04:20.431Z,243.50
2019-02-17T04:06:48.840Z,255.85
2019-02-17T04:09:17.231Z,250.87
2019-02-17T04:11:45.642Z,251.35
2019-02-17T04:14:14.029Z,259.02
2019-02-17T04:16:42.439Z,258.55
2019-02-17T04:19:10.878Z,241.17
2019-02-17T04:21:39.266Z,259.48
2019-02-17T04:24:07.690Z,265.82
2019-02-17T04:26:36.120Z,242.80
2019-02-17T04:29:04.522Z,261.32
2019-02-17T04:31:32.907Z,245.63
2019-02-17T04:34:01.321Z,253.37
2019-02-17T04:36:29.696Z,256.85
2019-02-17T04:38:58.108Z,260.08
2019-02-17T04:41:26.494Z,253.88
2019-02-17T04:43:54.906Z,259.83
2019-02-17T04:46:23.295Z,254.57
2019-02-17T04:48:51.691Z,256.13
2019-02-17T04:51:20.178Z,247.17
2019-02-17T04:53:48.595Z,236.52
2019-02-17T04:56:17.004Z,246.30
2019-02-17T04:58:45.395Z,256.75
2019-02-17T05:01:13.794Z,238.47
2019-02-17T05:03:42.190Z,256.32
2019-02-17T05:06:10.578Z,239.08
2019-02-17T05:08:38.998Z,245.85
2019-02-17T05:11:07.440Z,246.13
2019-02-17T05:13:35.892Z,245.65
2019-02-17T05:16:05.858Z,231.50
2019-02-17T05:18:34.227Z,244.07
2019-02-17T05:21:02.653Z,238.65
2019-02-17T05:23:31.034Z,242.40
2019-02-17T05:25:59.422Z,239.42
2019-02-17T05:28:27.829Z,241.95
2019-02-17T05:30:56.220Z,245.30
2019-02-17T05:33:24.651Z,226.55
2019-02-17T05:35:53.038Z,232.72
2019-02-17T05:38:21.437Z,229.45
2019-02-17T05:40:49.821Z,230.00
2019-02-17T05:43:18.226Z,236.43
2019-02-17T05:45:46.672Z,231.82
2019-02-17T05:48:15.061Z,249.52
2019-02-17T05:50:43.545Z,233.60
2019-02-17T05:53:11.968Z,225.97
2019-02-17T05:55:40.357Z,222.15
2019-02-17T05:58:08.776Z,223.87
2019-02-17T06:00:37.549Z,221.77
2019-02-17T06:03:05.986Z,241.15
2019-02-17T06:05:34.371Z,219.80
2019-02-17T06:08:02.850Z,218.75
2019-02-17T06:10:31.211Z,213.03
2019-02-17T06:12:59.592Z,221.90
2019-02-17T06:15:28.004Z,213.03
2019-02-17T06:17:56.396Z,206.90
2019-02-17T06:20:24.843Z,211.60
2019-02-17T06:22:53.287Z,199.00
2019-02-17T06:25:21.714Z,192.65
2019-02-17T06:27:50.133Z,204.68
2019-02-17T06:30:18.621Z,197.87
2019-02-17T06:32:47.053Z,197.75
2019-02-17T06:35:15.492Z,193.57
2019-02-17T06:37:43.885Z,196.30
2019-02-17T06:40:12.273Z,196.45
2019-02-17T06:42:40.700Z,202.80
2019-02-17T06:45:10.050Z,196.05
2019-02-17T06:47:38.449Z,193.47
2019-02-17T06:50:09.005Z,193.87
2019-02-17T06:52:37.423Z,188.05
2019-02-17T06:55:07.755Z,193.30
2019-02-17T06:57:37.777Z,188.55
2019-02-17T07:00:10.055Z,203.60
2019-02-17T07:02:38.535Z,205.12
2019-02-17T07:05:20.751Z,217.25
2019-02-17T07:07:49.158Z,216.35
2019-02-17T07:10:17.553Z,219.90
2019-02-17T07:12:45.955Z,216.33
2019-02-17T07:15:14.369Z,219.50
2019-02-17T07:17:42.742Z,205.20
2019-02-17T07:20:11.193Z,210.40
2019-02-17T07:22:39.569Z,214.38
2019-02-17T07:25:07.950Z,214.72
2019-02-17T07:27:36.386Z,207.50
2019-02-17T07:30:05.920Z,207.95
2019-02-17T07:32:34.299Z,196.87
2019-02-17T07:35:02.721Z,176.35
2019-02-17T07:37:33.819Z,186.15
2019-02-17T07:40:01.220Z,177.80
2019-02-17T07:42:29.738Z,173.32
2019-02-17T07:44:58.102Z,171.95
2019-02-17T07:47:26.484Z,173.82
2019-02-17T07:49:54.893Z,167.80
2019-02-17T07:52:23.266Z,168.32
2019-02-17T07:54:51.679Z,160.80
2019-02-17T07:57:20.070Z,160.07
2019-02-17T07:59:48.456Z,163.62
2019-02-17T08:02:16.850Z,131.07
2019-02-17T08:04:45.271Z,145.20
2019-02-17T08:07:13.657Z,139.65
2019-02-17T08:09:42.038Z,131.22
2019-02-17T08:12:10.529Z,122.45
2019-02-17T08:14:38.925Z,111.28
2019-02-17T08:17:07.323Z,102.58
2019-02-17T08:19:35.710Z,97.97
2019-02-17T08:22:04.133Z,86.30
2019-02-17T08:24:32.510Z,77.95
2019-02-17T08:27:00.883Z,65.87
2019-02-17T08:29:29.269Z,60.15
2019-02-17T08:31:57.672Z,61.85
2019-02-17T08:34:26.049Z,59.85
2019-02-17T08:36:54.499Z,59.03
2019-02-17T08:39:22.875Z,60.58
2019-02-17T08:41:51.262Z,52.43
2019-02-17T08:44:19.663Z,57.45
2019-02-17T08:46:48.048Z,47.95
2019-02-17T08:49:16.453Z,54.50
2019-02-17T08:51:44.880Z,64.90
2019-02-17T08:54:13.254Z,51.65
2019-02-17T08:56:41.633Z,42.50
2019-02-17T08:59:10.064Z,45.17
2019-02-17T09:01:40.442Z,41.83
2019-02-17T09:04:08.485Z,38.45
2019-02-17T09:06:36.889Z,43.02
2019-02-17T09:09:05.909Z,38.30
2019-02-17T09:11:34.304Z,33.48
2019-02-17T09:14:02.729Z,34.45
2019-02-17T09:16:31.112Z,30.65
2019-02-17T09:18:59.538Z,38.17
2019-02-17T09:21:27.958Z,34.78
2019-02-17T09:23:56.349Z,38.50
2019-02-17T09:26:24.874Z,29.50
2019-02-17T09:28:53.259Z,35.80
2019-02-17T09:31:21.635Z,31.95
2019-02-17T09:33:50.047Z,36.15
2019-02-17T09:36:18.439Z,36.58
2019-02-17T09:38:46.980Z,32.98
2019-02-17T09:41:15.408Z,35.55
2019-02-17T09:43:45.577Z,35.55
2019-02-17T09:46:14.167Z,36.60
2019-02-17T09:48:42.582Z,32.15
2019-02-17T09:51:10.995Z,39.53
2019-02-17T09:53:39.358Z,36.88
2019-02-17T09:56:07.771Z,38.55
2019-02-17T09:58:36.150Z,40.58
2019-02-17T10:01:04.718Z,36.85
2019-02-17T10:03:33.109Z,44.40
2019-02-17T10:06:01.487Z,50.98
2019-02-17T10:08:29.883Z,40.05
2019-02-17T10:10:59.167Z,42.48
2019-02-17T10:13:27.571Z,45.75
2019-02-17T10:15:55.972Z,42.20
2019-02-17T10:18:24.392Z,30.23
2019-02-17T10:20:52.764Z,33.40
2019-02-17T10:23:21.138Z,34.20
2019-02-17T10:25:49.462Z,30.82
2019-02-17T10:28:17.862Z,36.15
2019-02-17T10:30:46.274Z,44.85
2019-02-17T10:33:14.650Z,32.73
2019-02-17T10:35:43.032Z,37.73
2019-02-17T10:38:11.427Z,33.25
2019-02-17T10:40:39.860Z,33.25
2019-02-17T10:43:08.265Z,29.60
2019-02-17T10:45:36.641Z,29.00
2019-02-17T10:48:05.069Z,48.02
2019-02-17T10:50:33.462Z,46.42
2019-02-17T10:53:01.898Z,33.18
2019-02-17T10:55:30.331Z,41.33
2019-02-17T10:57:58.711Z,52.83
2019-02-17T11:00:27.706Z,33.38
2019-02-17T11:02:57.750Z,43.15
2019-02-17T11:05:26.124Z,31.40
2019-02-17T11:07:54.515Z,36.10
2019-02-17T11:10:23.013Z,35.50
2019-02-17T11:12:51.470Z,34.67
2019-02-17T11:15:20.435Z,32.25
2019-02-17T11:17:48.879Z,103.27
2019-02-17T11:20:20.391Z,34.33
2019-02-17T11:22:48.772Z,57.45
2019-02-17T11:25:17.207Z,39.18
2019-02-17T11:27:45.700Z,41.88
2019-02-17T11:30:19.347Z,37.85
2019-02-17T11:32:57.167Z,40.12
2019-02-17T11:35:17.772Z,55.63
2019-02-17T11:37:46.213Z,76.62
2019-02-17T11:40:14.628Z,45.38
2019-02-17T11:42:43.030Z,140.80
2019-02-17T11:45:17.401Z,37.13
2019-02-17T11:47:45.834Z,43.10
2019-02-17T11:50:15.766Z,33.08
2019-02-17T11:52:44.425Z,31.80
2019-02-17T11:55:14.654Z,37.83
2019-02-17T11:57:43.065Z,32.42
2019-02-17T12:00:14.713Z,33.55
2019-02-17T12:02:43.134Z,35.10
2019-02-17T12:05:11.641Z,31.97
2019-02-17T12:07:40.076Z,29.82
2019-02-17T12:10:10.461Z,31.50
2019-02-17T12:12:38.828Z,35.58
2019-02-17T12:15:09.489Z,33.80
2019-02-17T12:17:37.872Z,31.75
2019-02-17T12:20:27.679Z,41.20
2019-02-17T12:22:57.737Z,34.27
2019-02-17T12:25:27.764Z,376.50
2019-02-17T12:27:57.824Z,503.82
2019-02-17T12:30:26.431Z,88.87
2019-02-17T12:32:54.829Z,45.10
2019-02-17T12:35:23.224Z,153.32
2019-02-17T12:37:51.639Z,28.95
2019-02-17T12:40:20.048Z,39.05
2019-02-17T12:42:48.425Z,40.65
2019-02-17T12:45:18.378Z,31.12
2019-02-17T12:47:55.399Z,32.48
2019-02-17T12:50:19.727Z,32.42
2019-02-17T12:52:49.129Z,27.48
2019-02-17T12:55:17.582Z,33.08
2019-02-17T12:57:46.082Z,30.00
2019-02-17T13:00:16.543Z,30.12
2019-02-17T13:02:44.943Z,29.77
2019-02-17T13:05:13.349Z,33.80
2019-02-17T13:07:42.931Z,30.82
2019-02-17T13:10:11.848Z,28.67
2019-02-17T13:12:40.275Z,33.90
2019-02-17T13:15:11.204Z,35.20
2019-02-17T13:17:39.620Z,31.97
2019-02-17T13:20:10.667Z,26.77
2019-02-17T13:22:39.087Z,32.53
2019-02-17T13:25:13.566Z,30.72
2019-02-17T13:27:41.999Z,28.12
2019-02-17T13:30:21.965Z,29.40
2019-02-17T13:32:50.394Z,29.87
2019-02-17T13:35:18.796Z,29.18
2019-02-17T13:37:47.203Z,27.25
2019-02-17T13:40:15.585Z,41.63
2019-02-17T13:42:43.993Z,39.53
2019-02-17T13:45:16.664Z,28.05
2019-02-17T13:47:45.044Z,26.73
2019-02-17T13:50:15.655Z,26.73
2019-02-17T13:52:44.203Z,24.55
2019-02-17T13:55:12.738Z,34.92
2019-02-17T13:57:41.122Z,28.70
2019-02-17T14:00:15.071Z,28.50
2019-02-17T14:02:43.475Z,28.60
2019-02-17T14:05:11.886Z,29.35
2019-02-17T14:07:42.281Z,29.32
2019-02-17T14:10:14.680Z,28.25
2019-02-17T14:12:43.076Z,25.72
2019-02-17T14:15:18.887Z,29.65
2019-02-17T14:17:47.293Z,30.70
2019-02-17T14:20:15.720Z,29.42
2019-02-17T14:22:44.126Z,24.40
2019-02-17T14:25:12.567Z,28.38
2019-02-17T14:27:40.955Z,38.55
2019-02-17T14:30:14.212Z,29.27
2019-02-17T14:32:42.575Z,25.97
2019-02-17T14:35:10.961Z,34.50
2019-02-17T14:37:39.358Z,29.72
2019-02-17T14:40:12.628Z,27.62
2019-02-17T14:42:41.032Z,28.40
2019-02-17T14:45:11.776Z,30.40
2019-02-17T14:47:40.167Z,31.77
2019-02-17T14:50:08.877Z,27.17
2019-02-17T14:52:37.329Z,33.53
2019-02-17T14:55:07.848Z,28.00
2019-02-17T14:57:36.261Z,35.35
2019-02-17T15:00:13.091Z,27.10
2019-02-17T15:02:41.483Z,31.57
2019-02-17T15:05:10.444Z,36.03
2019-02-17T15:07:38.841Z,33.65
2019-02-17T15:10:10.137Z,35.23
2019-02-17T15:12:38.546Z,40.80
2019-02-17T15:15:11.504Z,58.45
2019-02-17T15:17:39.901Z,37.38
2019-02-17T15:20:17.468Z,40.08
2019-02-17T15:22:45.848Z,30.05
2019-02-17T15:25:14.232Z,39.48
2019-02-17T15:27:42.663Z,38.67
2019-02-17T15:30:14.777Z,41.40
2019-02-17T15:32:43.207Z,38.75
2019-02-17T15:35:11.595Z,31.17
2019-02-17T15:37:39.972Z,46.95
2019-02-17T15:40:14.347Z,34.27
2019-02-17T15:42:44.581Z,36.95
2019-02-17T15:45:13.845Z,37.38
2019-02-17T15:47:42.223Z,36.33
2019-02-17T15:50:12.004Z,53.52
2019-02-17T15:52:40.390Z,78.05
2019-02-17T15:55:10.738Z,80.45
2019-02-17T15:57:39.152Z,94.03
2019-02-17T16:00:15.964Z,97.15
2019-02-17T16:02:44.386Z,72.58
2019-02-17T16:05:12.855Z,76.15
2019-02-17T16:07:41.242Z,72.45
2019-02-17T16:10:11.420Z,55.43
2019-02-17T16:12:39.826Z,59.58
2019-02-17T16:15:11.506Z,56.75
2019-02-17T16:17:39.934Z,56.15
2019-02-17T16:20:11.071Z,61.00
2019-02-17T16:22:39.455Z,46.68
2019-02-17T16:25:09.094Z,52.25
2019-02-17T16:27:37.648Z,49.18
2019-02-17T16:30:14.482Z,64.12
2019-02-17T16:32:42.897Z,66.10
2019-02-17T16:35:11.283Z,74.85
2019-02-17T16:37:39.791Z,82.60
2019-02-17T16:40:14.249Z,69.40
2019-02-17T16:42:42.660Z,74.42
2019-02-17T16:45:12.504Z,57.43
2019-02-17T16:47:40.899Z,49.95
2019-02-17T16:50:12.405Z,72.37
2019-02-17T16:52:40.814Z,72.90
2019-02-17T16:55:10.548Z,68.22
2019-02-17T16:57:39.032Z,54.20
2019-02-17T17:00:15.294Z,69.62
2019-02-17T17:02:43.706Z,57.27
2019-02-17T17:05:12.122Z,69.75
2019-02-17T17:07:40.501Z,78.47
2019-02-17T17:10:08.922Z,80.03
2019-02-17T17:12:37.308Z,75.75
2019-02-17T17:15:08.336Z,65.20
2019-02-17T17:17:36.802Z,65.62
2019-02-17T17:20:08.437Z,55.38
2019-02-17T17:22:36.840Z,58.85
2019-02-17T17:25:07.776Z,57.88
2019-02-17T17:27:36.204Z,77.95
2019-02-17T17:30:07.398Z,58.58
2019-02-17T17:32:35.778Z,56.92
2019-02-17T17:35:04.946Z,78.95
2019-02-17T17:37:33.329Z,65.87
2019-02-17T17:40:01.775Z,83.07
2019-02-17T17:42:30.163Z,77.82
2019-02-17T17:44:58.559Z,90.35
2019-02-17T17:47:27.017Z,68.80
2019-02-17T17:49:55.387Z,65.57
2019-02-17T17:52:23.772Z,62.98
2019-02-17T17:54:52.196Z,75.95
2019-02-17T17:57:20.612Z,94.97
2019-02-17T17:59:48.987Z,77.65
2019-02-17T18:02:17.595Z,87.57
2019-02-17T18:04:45.971Z,84.03
2019-02-17T18:07:14.378Z,83.45
2019-02-17T18:09:42.752Z,82.65
2019-02-17T18:12:11.203Z,89.95
2019-02-17T18:14:39.580Z,86.63
2019-02-17T18:17:08.021Z,116.70
2019-02-17T18:19:36.408Z,100.65
2019-02-17T18:22:04.796Z,91.35
2019-02-17T18:24:33.203Z,82.25
2019-02-17T18:27:01.588Z,83.95
2019-02-17T18:29:30.157Z,107.55
2019-02-17T18:31:58.568Z,97.05
2019-02-17T18:34:27.017Z,99.10
2019-02-17T18:36:55.399Z,103.95
2019-02-17T18:39:23.800Z,96.15
2019-02-17T18:41:52.213Z,93.75
2019-02-17T18:44:20.591Z,92.37
2019-02-17T18:46:49.103Z,110.65
2019-02-17T18:49:17.519Z,90.17
2019-02-17T18:51:46.032Z,95.95
2019-02-17T18:54:14.407Z,99.17
2019-02-17T18:56:44.515Z,100.42
2019-02-17T18:59:12.905Z,96.75
2019-02-17T19:01:41.328Z,100.80
2019-02-17T19:04:09.698Z,107.90
2019-02-17T19:06:38.113Z,100.65
2019-02-17T19:09:07.035Z,102.38
2019-02-17T19:11:35.466Z,114.67
2019-02-17T19:14:03.863Z,132.05
2019-02-17T19:16:33.905Z,117.70
2019-02-17T19:19:02.338Z,124.60
2019-02-17T19:21:31.739Z,121.13
2019-02-17T19:24:00.116Z,134.25
2019-02-17T19:26:28.516Z,146.20
2019-02-17T19:28:56.923Z,143.07
2019-02-17T19:31:25.352Z,140.60
2019-02-17T19:33:53.757Z,147.53
2019-02-17T19:36:22.140Z,162.05
2019-02-17T19:38:50.536Z,141.53
2019-02-17T19:41:18.969Z,137.03
2019-02-17T19:43:47.375Z,128.18
2019-02-17T19:46:15.788Z,144.95
2019-02-17T19:48:44.413Z,152.70
2019-02-17T19:51:12.943Z,147.72
2019-02-17T19:53:41.290Z,161.65
2019-02-17T19:56:09.777Z,183.05
2019-02-17T19:58:38.265Z,178.50
2019-02-17T20:01:06.659Z,175.72
2019-02-17T20:03:36.844Z,157.60
2019-02-17T20:06:06.903Z,159.93
2019-02-17T20:08:35.331Z,160.90
2019-02-17T20:11:03.960Z,156.22
2019-02-17T20:13:32.338Z,169.30
2019-02-17T20:16:00.738Z,179.78
2019-02-17T20:18:29.170Z,172.15
2019-02-17T20:20:57.581Z,167.05
2019-02-17T20:23:26.016Z,156.20
2019-02-17T20:25:57.859Z,167.85
2019-02-17T20:28:40.693Z,157.80
2019-02-17T20:30:56.002Z,153.75
2019-02-17T20:33:24.423Z,160.50
2019-02-17T20:36:01.758Z,153.70
2019-02-17T20:38:23.127Z,147.95
2019-02-17T20:40:51.513Z,166.62
2019-02-17T20:43:19.937Z,158.25
2019-02-17T20:45:48.578Z,152.32
2019-02-17T20:48:17.164Z,151.27
2019-02-17T20:50:45.749Z,179.05
2019-02-17T20:53:14.384Z,185.03
2019-02-17T20:55:42.692Z,170.20
2019-02-17T20:58:11.467Z,210.57
2019-02-17T21:00:39.820Z,206.02
2019-02-17T21:03:08.277Z,227.82
2019-02-17T21:05:36.683Z,183.95
2019-02-17T21:08:05.095Z,211.40
2019-02-17T21:10:33.922Z,206.25
2019-02-17T21:13:02.313Z,214.78
2019-02-17T21:15:30.725Z,203.32
2019-02-17T21:17:59.119Z,210.10
2019-02-17T21:20:27.554Z,209.40
2019-02-17T21:22:55.981Z,218.07
2019-02-17T21:25:24.820Z,222.65
2019-02-17T21:27:53.197Z,235.80
2019-02-17T21:30:21.589Z,207.15
2019-02-17T21:32:50.032Z,213.57
2019-02-17T21:35:18.422Z,191.40
2019-02-17T21:37:46.800Z,199.95
2019-02-17T21:40:16.887Z,210.13
2019-02-17T21:42:45.299Z,244.57
2019-02-17T21:45:14.970Z,253.32
2019-02-17T21:47:43.341Z,243.88
2019-02-17T21:50:15.518Z,230.25
2019-02-17T21:52:43.981Z,241.15
2019-02-17T21:55:13.328Z,259.35
2019-02-17T21:57:41.703Z,256.02
2019-02-17T22:00:16.906Z,261.30
2019-02-17T22:02:45.499Z,285.52
2019-02-17T22:05:13.912Z,306.40
2019-02-17T22:07:42.356Z,256.73
2019-02-17T22:10:13.419Z,256.43
2019-02-17T22:12:41.871Z,257.18
2019-02-17T22:15:12.970Z,246.53
2019-02-17T22:17:41.360Z,249.22
2019-02-17T22:20:11.068Z,270.30
2019-02-17T22:22:39.457Z,256.77
2019-02-17T22:25:11.728Z,257.98
2019-02-17T22:27:40.144Z,249.18
2019-02-17T22:30:13.679Z,253.83
2019-02-17T22:32:42.090Z,246.80
2019-02-17T22:35:10.481Z,230.12
2019-02-17T22:37:38.908Z,213.65
2019-02-17T22:40:11.739Z,216.15
2019-02-17T22:42:42.488Z,212.50
2019-02-17T22:45:14.502Z,222.35
2019-02-17T22:47:42.889Z,223.25
2019-02-17T22:50:13.411Z,200.40
2019-02-17T22:52:41.889Z,203.67
2019-02-17T22:55:11.639Z,227.13
2019-02-17T22:57:40.076Z,216.38
2019-02-17T23:00:24.933Z,231.13
2019-02-17T23:02:53.324Z,222.60
2019-02-17T23:05:21.709Z,226.45
2019-02-17T23:07:50.115Z,227.40
2019-02-17T23:10:18.571Z,243.20
2019-02-17T23:12:46.978Z,242.32
2019-02-17T23:15:15.386Z,240.65
2019-02-17T23:17:43.806Z,251.50
2019-02-17T23:20:12.220Z,243.75
2019-02-17T23:22:40.650Z,233.65
2019-02-17T23:25:09.411Z,248.85
2019-02-17T23:27:37.861Z,248.90
2019-02-17T23:30:08.258Z,245.57
2019-02-17T23:32:38.293Z,245.78
2019-02-17T23:35:06.685Z,249.75
2019-02-17T23:37:35.099Z,239.15
2019-02-17T23:40:05.080Z,236.50
2019-02-17T23:42:33.455Z,241.63
2019-02-17T23:45:01.985Z,236.72
2019-02-17T23:47:30.350Z,243.60
2019-02-17T23:49:58.721Z,247.58
2019-02-17T23:52:27.328Z,252.32
2019-02-17T23:54:55.706Z,237.60
2019-02-17T23:57:24.370Z,242.85
2019-02-17T23:59:52.782Z,253.70
